aviador You're here:

KLNK Decoded Metar

LINCOLN in NE, USA
Report Time2017-06-29 06:54:00
UTC Time2017-06-29 07:17:10
Flight Rules vfr VFR
WindCalm
Visibility9999 m
Phenomena:N/A
Clouds:N/A
Expected CloudBase > 1,600 ft AGL from Temp-Dew spread
CeilingNone
Temp23°C (ISA +10)
Dew Point19°C (78% RH)
QNH1007 hPa
Density Alt2,897 ft
Elevation1,194 ft
Report Wrong Elevation
Raw Report
KLNK 290654Z AUTO 00000KT 10SM CLR 23/19 A2973 RMK AO2 SLP054
T02330194=

Extra information for KLNK:More info

Metar Taf Metar & Taf Last 4 Metars F.Rules Stats Wind Profile Meteogram Temp Stats Airport Information Weather charts Add Link Nearby VenuesMetar ALERT Operation Metar Decoded Social comments

AIRNAV info for KLNK